Terminal Aerodrome Forecast
Issued by NWS

Home | Current Version | Previous Version | Text Only | Print | Product List | Glossary On
Versions: 1 2 3 4 5 6 7 8 9 10 11 12 13 14 15 16 17 18 19 20 21 22 23 24 25 26 27 28 29 30 31 32 33
000
FTUS43 KDLH 210500
TAFBRD
TAF
KBRD 210534Z 2106/2206 30015G24KT P6SM BKN023 OVC035
      TEMPO 2106/2108 6SM -SN BKN018 OVC023
     FM211600 31018G26KT P6SM -SN OVC025
      TEMPO 2120/2123 4SM -SHSN
     FM220200 32015G24KT P6SM BKN035=

USA.gov is the U.S. government's official web portal to all federal, state and local government web resources and services.